createdAt,value
2018-07-03T10:48:09.153Z,1.40
2018-07-03T10:49:09.291Z,1.70
2018-07-03T10:50:09.434Z,1.30
2018-07-03T10:51:09.577Z,1.70
2018-07-03T10:52:09.711Z,1.30
2018-07-03T10:53:09.852Z,1.30
2018-07-03T10:54:10.006Z,1.10
2018-07-03T10:55:10.140Z,1.30
2018-07-03T10:56:10.359Z,1.30
2018-07-03T10:57:10.378Z,1.50
2018-07-03T10:58:10.516Z,1.10
2018-07-03T10:59:10.656Z,1.30
2018-07-03T11:00:10.795Z,1.40
2018-07-03T11:01:10.945Z,1.10
2018-07-03T11:02:11.089Z,1.60
2018-07-03T11:03:11.231Z,1.30
2018-07-03T11:04:11.367Z,1.10
2018-07-03T11:05:11.511Z,1.10
2018-07-03T11:06:11.650Z,1.20
2018-07-03T11:07:11.799Z,1.30
2018-07-03T11:08:11.943Z,1.30
2018-07-03T11:09:12.086Z,1.20
2018-07-03T11:10:12.233Z,1.20
2018-07-03T11:11:12.374Z,1.20
2018-07-03T11:12:12.512Z,1.10
2018-07-03T11:13:12.655Z,1.40
2018-07-03T11:14:12.799Z,1.40
2018-07-03T11:15:12.941Z,1.00
2018-07-03T11:16:13.093Z,1.10
2018-07-03T11:17:13.239Z,1.40
2018-07-03T11:18:13.381Z,1.20
2018-07-03T11:19:13.530Z,1.30
2018-07-03T11:20:13.749Z,1.30
2018-07-03T11:21:13.817Z,1.30
2018-07-03T11:22:13.957Z,1.50
2018-07-03T11:23:14.105Z,1.30
2018-07-03T11:24:14.247Z,1.20
2018-07-03T11:25:14.392Z,1.20
2018-07-03T11:26:14.531Z,1.40
2018-07-03T11:27:14.695Z,1.30
2018-07-03T11:28:14.831Z,1.30
2018-07-03T11:29:14.976Z,1.20
2018-07-03T11:30:15.136Z,1.30
2018-07-03T11:31:15.271Z,1.30
2018-07-03T11:32:15.413Z,1.30
2018-07-03T11:33:15.559Z,1.30
2018-07-03T11:34:15.716Z,1.30
2018-07-03T11:35:15.856Z,1.10
2018-07-03T11:36:15.992Z,1.20
2018-07-03T11:37:16.133Z,1.40
2018-07-03T11:38:16.290Z,1.30
2018-07-03T11:39:16.435Z,1.20
2018-07-03T11:40:16.578Z,3.10
2018-07-03T11:41:16.740Z,2.50
2018-07-03T11:42:16.877Z,1.50
2018-07-03T11:43:17.027Z,1.30
2018-07-03T11:44:17.161Z,1.30
2018-07-03T11:45:17.337Z,1.40
2018-07-03T11:46:17.475Z,1.30
2018-07-03T11:47:17.618Z,1.20
2018-07-03T11:48:17.774Z,1.40
2018-07-03T11:49:17.917Z,1.20
2018-07-03T11:50:18.061Z,1.20
2018-07-03T11:51:18.205Z,1.40
2018-07-03T11:52:18.353Z,1.40
2018-07-03T11:53:18.501Z,1.30
2018-07-03T11:54:18.637Z,1.30
2018-07-03T11:55:18.783Z,1.20
2018-07-03T11:56:18.949Z,1.30
2018-07-03T11:57:19.092Z,1.40
2018-07-03T11:58:19.233Z,1.10
2018-07-03T11:59:19.376Z,1.30
2018-07-03T12:00:19.559Z,1.30
2018-07-03T12:01:19.730Z,1.40
2018-07-03T12:02:19.830Z,1.30
2018-07-03T12:03:19.999Z,1.30
2018-07-03T12:04:20.125Z,1.40
2018-07-03T12:05:20.264Z,1.30
2018-07-03T12:06:20.409Z,1.20
2018-07-03T12:07:20.554Z,1.40
2018-07-03T12:08:20.706Z,1.30
2018-07-03T12:09:20.858Z,1.40
2018-07-03T12:10:20.999Z,1.30
2018-07-03T12:11:21.166Z,1.40
2018-07-03T12:12:21.302Z,1.20
2018-07-03T12:13:21.441Z,1.30
2018-07-03T12:14:21.587Z,1.30
2018-07-03T12:15:21.758Z,1.40
2018-07-03T12:16:21.903Z,1.20
2018-07-03T12:17:22.051Z,1.40
2018-07-03T12:18:22.219Z,1.00
2018-07-03T12:19:22.357Z,1.10
2018-07-03T12:20:22.502Z,1.30
2018-07-03T12:21:22.673Z,1.30
2018-07-03T12:22:22.806Z,1.40
2018-07-03T12:23:22.952Z,1.40
2018-07-03T12:24:23.103Z,1.20
2018-07-03T12:25:23.317Z,1.70
2018-07-03T12:26:23.469Z,1.80
2018-07-03T12:27:23.613Z,1.50
2018-07-03T12:28:23.753Z,1.60
2018-07-03T12:29:23.925Z,1.20
2018-07-03T12:30:24.055Z,1.20
2018-07-03T12:31:24.206Z,1.10
2018-07-03T12:32:24.351Z,1.10
2018-07-03T12:33:24.494Z,1.20
2018-07-03T12:34:24.644Z,1.20
2018-07-03T12:35:24.790Z,1.40
2018-07-03T12:36:24.966Z,1.20
2018-07-03T12:37:25.105Z,1.30
2018-07-03T12:38:25.246Z,1.00
2018-07-03T12:39:25.393Z,1.20
2018-07-03T12:40:25.536Z,1.10
2018-07-03T12:41:25.697Z,1.30
2018-07-03T12:42:25.843Z,1.20
2018-07-03T12:43:25.985Z,1.60
2018-07-03T12:44:26.133Z,1.20
2018-07-03T12:45:26.287Z,1.20
2018-07-03T12:46:26.426Z,1.10
2018-07-03T12:47:26.577Z,1.30
2018-07-03T12:48:26.727Z,1.20
2018-07-03T12:49:26.880Z,1.40
2018-07-03T12:50:27.839Z,1.50
2018-07-03T12:51:27.214Z,6.90
2018-07-03T12:52:27.360Z,2.90
2018-07-03T12:53:27.506Z,15.20
2018-07-03T12:54:27.660Z,2.30
2018-07-03T12:55:27.851Z,1.70
2018-07-03T12:56:27.956Z,1.30
2018-07-03T12:57:28.107Z,1.50
2018-07-03T12:58:28.251Z,1.30
2018-07-03T12:59:28.465Z,1.10
2018-07-03T13:00:28.487Z,1.20
2018-07-03T13:01:28.628Z,1.30
2018-07-03T13:02:28.770Z,1.20
2018-07-03T13:03:28.909Z,1.10
2018-07-03T13:04:29.059Z,1.40
2018-07-03T13:05:29.209Z,1.10
2018-07-03T13:06:29.353Z,1.20
2018-07-03T13:07:29.498Z,1.20
2018-07-03T13:08:29.669Z,1.40
2018-07-03T13:09:29.805Z,1.30
2018-07-03T13:10:29.952Z,1.30
2018-07-03T13:11:30.104Z,1.20
2018-07-03T13:12:30.298Z,1.50
2018-07-03T13:13:30.421Z,1.30
2018-07-03T13:14:30.563Z,1.20
2018-07-03T13:15:30.708Z,1.30
2018-07-03T13:16:30.852Z,1.40
2018-07-03T13:17:30.993Z,1.20
2018-07-03T13:18:31.136Z,1.20
2018-07-03T13:19:31.280Z,1.40
2018-07-03T13:20:31.433Z,1.20
2018-07-03T13:21:31.579Z,1.20
2018-07-03T13:22:31.729Z,1.30
2018-07-03T13:23:31.865Z,1.20
2018-07-03T13:24:32.022Z,1.30
2018-07-03T13:25:32.164Z,1.20
2018-07-03T13:26:32.308Z,1.20
2018-07-03T13:27:32.450Z,1.40
2018-07-03T13:28:32.595Z,1.30
2018-07-03T13:29:32.733Z,1.20
2018-07-03T13:30:32.881Z,1.30
2018-07-03T13:31:33.087Z,1.20
2018-07-03T13:32:33.175Z,1.40
2018-07-03T13:33:33.316Z,1.20
2018-07-03T13:34:33.471Z,1.20
2018-07-03T13:35:33.626Z,1.30
2018-07-03T13:36:33.788Z,1.10
2018-07-03T13:37:33.916Z,1.00
2018-07-03T13:38:34.057Z,1.30
2018-07-03T13:39:34.215Z,1.50
2018-07-03T13:40:34.358Z,1.50
2018-07-03T13:41:34.501Z,1.20
2018-07-03T13:42:34.680Z,1.10
2018-07-03T13:43:34.817Z,1.20
2018-07-03T13:44:35.000Z,1.40
2018-07-03T13:45:35.144Z,1.20
2018-07-03T13:46:35.338Z,1.10
2018-07-03T13:49:07.599Z,1.20
2018-07-03T13:50:07.741Z,1.10
2018-07-03T13:51:07.900Z,1.30
2018-07-03T13:52:08.046Z,1.30
2018-07-03T13:53:08.184Z,1.00
2018-07-03T13:54:08.330Z,1.30
2018-07-03T13:55:08.476Z,1.20
2018-07-03T13:56:08.630Z,1.10
2018-07-03T13:57:08.780Z,1.10
2018-07-03T13:58:08.924Z,1.20
2018-07-03T13:59:09.069Z,1.30
2018-07-03T14:00:09.204Z,1.10
2018-07-03T14:01:09.363Z,1.00
2018-07-03T14:02:09.533Z,1.10
2018-07-03T14:03:09.657Z,1.10
2018-07-03T14:04:09.808Z,1.00
2018-07-03T14:05:09.947Z,0.90
2018-07-03T14:06:10.102Z,1.10
2018-07-03T14:07:10.246Z,1.00
2018-07-03T14:08:10.401Z,1.00
2018-07-03T14:09:10.557Z,1.10
2018-07-03T14:10:10.703Z,1.10
2018-07-03T14:11:10.862Z,1.40
2018-07-03T14:12:11.012Z,1.00
2018-07-03T14:13:11.173Z,1.00
2018-07-03T14:14:11.310Z,1.20
2018-07-03T14:15:11.452Z,1.00
2018-07-03T14:16:11.605Z,0.90
2018-07-03T14:17:11.746Z,1.40
2018-07-03T14:18:11.891Z,1.20
2018-07-03T14:19:12.046Z,1.00
2018-07-03T14:20:12.194Z,1.20
2018-07-03T14:21:12.336Z,1.00
2018-07-03T14:22:12.485Z,1.10
2018-07-03T14:23:12.630Z,1.10
2018-07-03T14:24:12.812Z,1.00
2018-07-03T14:25:13.179Z,1.10
2018-07-03T14:26:13.168Z,1.10
2018-07-03T14:27:13.289Z,1.10
2018-07-03T14:28:13.420Z,1.30
2018-07-03T14:29:13.589Z,1.10
2018-07-03T14:30:13.734Z,1.20
2018-07-03T14:31:13.917Z,1.10
2018-07-03T14:32:14.258Z,1.10
2018-07-03T14:33:14.192Z,1.10
2018-07-03T14:34:14.353Z,1.20
2018-07-03T14:35:14.498Z,1.10
2018-07-03T14:36:14.645Z,1.50
2018-07-03T14:37:14.786Z,1.20
2018-07-03T14:38:14.953Z,1.30
2018-07-03T14:39:15.096Z,1.10
2018-07-03T14:40:15.258Z,0.80
2018-07-03T14:41:15.403Z,1.10
2018-07-03T14:42:15.554Z,1.10
2018-07-03T14:43:15.718Z,1.10
2018-07-03T14:44:15.878Z,1.30
2018-07-03T14:45:16.003Z,1.10
2018-07-03T14:46:16.181Z,1.30
2018-07-03T14:47:16.339Z,1.20
2018-07-03T14:48:16.497Z,1.10
2018-07-03T14:49:16.640Z,1.10
2018-07-03T14:50:16.785Z,1.10
2018-07-03T14:51:16.980Z,1.00
2018-07-03T14:52:17.141Z,1.30
2018-07-03T14:53:17.285Z,1.20
2018-07-03T14:54:17.439Z,1.40
2018-07-03T14:55:17.584Z,1.30
2018-07-03T14:56:17.727Z,1.30
2018-07-03T14:57:17.879Z,1.20
2018-07-03T14:58:18.015Z,1.20
2018-07-03T14:59:18.172Z,1.70
2018-07-03T15:00:18.322Z,1.40
2018-07-03T15:01:18.474Z,1.20
2018-07-03T15:02:18.625Z,1.30
2018-07-03T15:03:18.925Z,1.10
2018-07-03T15:04:18.849Z,1.20
2018-07-03T15:05:19.007Z,1.20
2018-07-03T15:06:19.197Z,1.30
2018-07-03T15:07:19.324Z,6.10
2018-07-03T15:08:19.491Z,6.40
2018-07-03T15:09:19.643Z,2.60
2018-07-03T15:10:19.790Z,3.30
2018-07-03T15:11:19.927Z,3.40
2018-07-03T15:12:20.090Z,1.60
2018-07-03T15:13:20.236Z,2.90
2018-07-03T15:14:20.377Z,2.30
2018-07-03T15:15:20.643Z,1.60
2018-07-03T15:16:20.664Z,1.40
2018-07-03T15:17:20.810Z,2.40
2018-07-03T15:18:20.977Z,1.20
2018-07-03T15:19:21.146Z,1.90
2018-07-03T15:20:21.329Z,1.40
2018-07-03T15:21:21.440Z,1.10
2018-07-03T15:22:21.653Z,1.20
2018-07-03T15:23:21.763Z,1.10
2018-07-03T15:24:21.899Z,1.30
2018-07-03T15:25:22.037Z,1.00
2018-07-03T15:26:22.230Z,1.10
2018-07-03T15:27:22.375Z,1.00
2018-07-03T15:28:22.518Z,1.10
2018-07-03T15:29:22.667Z,1.30
2018-07-03T15:30:22.821Z,1.30
2018-07-03T15:31:22.963Z,1.30
2018-07-03T15:32:23.120Z,1.40
2018-07-03T15:33:23.311Z,3.30
2018-07-03T15:34:23.462Z,2.10
2018-07-03T15:35:23.613Z,2.70
2018-07-03T15:36:23.806Z,1.70
2018-07-03T15:37:23.975Z,1.70
2018-07-03T15:38:24.089Z,1.40
2018-07-03T15:39:24.271Z,3.40
2018-07-03T15:41:56.974Z,1.10
2018-07-03T15:42:57.148Z,1.30
2018-07-03T15:43:57.294Z,1.20
2018-07-03T15:44:57.433Z,1.30
2018-07-03T15:45:57.574Z,1.00
2018-07-03T15:46:59.440Z,1.10
2018-07-03T15:47:57.842Z,1.20
2018-07-03T15:48:57.991Z,1.20
2018-07-03T15:49:58.170Z,1.00
2018-07-03T15:50:58.299Z,1.00
2018-07-03T15:51:58.442Z,1.30
2018-07-03T15:52:58.585Z,2.50
2018-07-03T15:53:58.748Z,6.60
2018-07-03T15:54:58.892Z,9.80
2018-07-03T15:55:59.036Z,5.20
2018-07-03T15:56:59.184Z,2.80
2018-07-03T15:57:59.337Z,2.90
2018-07-03T15:58:59.487Z,1.90
2018-07-03T15:59:59.638Z,1.00
2018-07-03T16:00:59.789Z,1.40
2018-07-03T16:01:59.939Z,1.20
2018-07-03T16:03:00.081Z,1.40
2018-07-03T16:04:00.226Z,2.10
2018-07-03T16:05:00.446Z,3.10
2018-07-03T16:06:00.541Z,5.80
2018-07-03T16:07:00.685Z,2.00
2018-07-03T16:08:00.849Z,6.00
2018-07-03T16:09:01.004Z,5.60
2018-07-03T16:10:01.188Z,3.70
2018-07-03T16:11:01.314Z,4.40
2018-07-03T16:12:01.463Z,2.10
2018-07-03T16:13:01.660Z,1.10
2018-07-03T16:14:01.754Z,1.10
2018-07-03T16:15:01.999Z,1.00
2018-07-03T16:16:02.044Z,1.20
2018-07-03T16:17:02.196Z,1.10
2018-07-03T16:18:02.346Z,1.00
2018-07-03T16:19:02.514Z,1.30
2018-07-03T16:20:02.765Z,1.20
2018-07-03T16:21:02.793Z,1.30
2018-07-03T16:22:02.936Z,1.20
2018-07-03T16:23:03.080Z,1.10
2018-07-03T16:24:03.226Z,1.10
2018-07-03T16:25:03.519Z,1.00
2018-07-03T16:26:03.482Z,1.30
2018-07-03T16:27:03.638Z,1.30
2018-07-03T16:28:03.780Z,2.60
2018-07-03T16:29:03.927Z,1.30
2018-07-03T16:30:04.064Z,5.10
2018-07-03T16:31:04.208Z,14.20
2018-07-03T16:32:04.349Z,8.10
2018-07-03T16:33:04.495Z,20.40
2018-07-03T16:34:04.637Z,16.00
2018-07-03T16:35:04.780Z,11.00
2018-07-03T16:36:04.930Z,2.70
2018-07-03T16:37:05.070Z,1.70
2018-07-03T16:38:05.213Z,2.80
2018-07-03T16:39:05.364Z,2.00
2018-07-03T16:40:06.320Z,3.50
2018-07-03T16:41:05.621Z,15.60
2018-07-03T16:42:05.767Z,2.10
2018-07-03T16:43:05.913Z,2.20
2018-07-03T16:44:06.052Z,9.70
2018-07-03T16:45:06.201Z,2.00
2018-07-03T16:46:06.346Z,7.00
2018-07-03T16:47:06.489Z,2.30
2018-07-03T16:48:06.638Z,2.20
2018-07-03T16:49:06.782Z,1.80
2018-07-03T16:50:06.935Z,2.80
2018-07-03T16:51:07.079Z,3.20
2018-07-03T16:52:07.231Z,2.80
2018-07-03T16:53:07.380Z,1.70
2018-07-03T16:54:07.527Z,2.70
2018-07-03T16:55:07.672Z,5.50
2018-07-03T16:56:07.825Z,5.00
2018-07-03T16:57:07.963Z,3.80
2018-07-03T16:58:08.105Z,6.60
2018-07-03T16:59:08.266Z,5.20
2018-07-03T17:00:08.405Z,2.40
2018-07-03T17:01:08.566Z,3.10
2018-07-03T17:02:08.715Z,7.30
2018-07-03T17:03:08.864Z,6.90
2018-07-03T17:04:09.005Z,6.70
2018-07-03T17:05:09.161Z,4.90
2018-07-03T17:06:09.306Z,5.70
2018-07-03T17:07:09.495Z,3.00
2018-07-03T17:08:09.624Z,3.90
2018-07-03T17:09:09.769Z,7.50
2018-07-03T17:10:09.948Z,5.60
2018-07-03T17:11:10.082Z,7.40
2018-07-03T17:12:10.235Z,12.60
2018-07-03T17:13:10.371Z,9.90
2018-07-03T17:14:10.519Z,6.90
2018-07-03T17:15:10.664Z,4.40
2018-07-03T17:16:10.804Z,5.60
2018-07-03T17:17:10.943Z,3.70
2018-07-03T17:18:11.215Z,3.00
2018-07-03T17:19:11.289Z,3.20
2018-07-03T17:20:11.469Z,8.10
2018-07-03T17:21:11.577Z,3.40
2018-07-03T17:22:11.712Z,13.60
2018-07-03T17:23:11.880Z,24.30
2018-07-03T17:24:12.032Z,13.40
2018-07-03T17:25:12.169Z,21.50
2018-07-03T17:26:12.321Z,14.80
2018-07-03T17:27:12.495Z,11.80
2018-07-03T17:28:12.650Z,6.00
2018-07-03T17:29:12.819Z,3.80
2018-07-03T17:30:12.968Z,3.80
2018-07-03T17:31:13.265Z,2.60
2018-07-03T17:32:13.265Z,3.60
2018-07-03T17:33:13.413Z,3.40
2018-07-03T17:34:13.603Z,5.10
2018-07-03T17:35:13.725Z,6.00
2018-07-03T17:36:13.880Z,5.50
2018-07-03T17:37:14.055Z,7.80
2018-07-03T17:38:14.196Z,11.10
2018-07-03T17:39:14.391Z,11.30
2018-07-03T17:40:14.539Z,23.10
2018-07-03T17:41:14.713Z,21.50
2018-07-03T17:42:14.867Z,11.40
2018-07-03T17:43:15.073Z,6.90
2018-07-03T17:44:15.223Z,4.40
2018-07-03T17:45:15.444Z,5.80
2018-07-03T17:46:15.532Z,5.20
2018-07-03T17:47:15.677Z,4.70
2018-07-03T17:48:15.838Z,2.90
2018-07-03T17:49:15.989Z,3.90
2018-07-03T17:50:16.127Z,6.90
2018-07-03T17:51:16.276Z,5.10
2018-07-03T17:52:16.971Z,5.70
2018-07-03T17:53:16.773Z,8.50
2018-07-03T17:54:16.718Z,5.40
2018-07-03T17:55:16.875Z,4.90
2018-07-03T17:56:17.014Z,4.50
2018-07-03T17:57:17.170Z,11.10
2018-07-03T17:58:17.307Z,5.50
2018-07-03T17:59:17.478Z,14.50
2018-07-03T18:00:17.596Z,5.40
2018-07-03T18:01:17.741Z,3.80
2018-07-03T18:02:17.884Z,4.20
2018-07-03T18:03:18.025Z,4.50
2018-07-03T18:04:18.179Z,5.70
2018-07-03T18:05:18.333Z,4.40
2018-07-03T18:06:18.479Z,3.50
2018-07-03T18:07:18.626Z,3.60
2018-07-03T18:08:18.772Z,7.10
2018-07-03T18:09:18.925Z,4.60
2018-07-03T18:10:19.067Z,7.10
2018-07-03T18:11:19.207Z,5.00
2018-07-03T18:12:19.355Z,8.30
2018-07-03T18:13:19.503Z,10.70
2018-07-03T18:14:19.661Z,10.40
2018-07-03T18:15:19.820Z,20.40
2018-07-03T18:16:19.931Z,33.50
2018-07-03T18:17:20.076Z,22.00
2018-07-03T18:18:20.237Z,9.10
2018-07-03T18:19:20.406Z,21.60
2018-07-03T18:20:20.531Z,11.10
2018-07-03T18:21:20.682Z,24.80
2018-07-03T18:22:20.833Z,13.40
2018-07-03T18:23:20.973Z,16.60
2018-07-03T18:24:21.867Z,16.40
2018-07-03T18:25:21.280Z,3.80
2018-07-03T18:26:21.436Z,3.30
2018-07-03T18:27:21.619Z,3.70
2018-07-03T18:28:21.733Z,2.70
2018-07-03T18:29:21.927Z,1.90
2018-07-03T18:30:22.027Z,2.60
2018-07-03T18:31:22.176Z,1.60
2018-07-03T18:32:22.317Z,2.10
2018-07-03T18:33:22.460Z,4.60
2018-07-03T18:34:22.602Z,3.90
2018-07-03T18:35:22.824Z,3.90
2018-07-03T18:36:22.896Z,3.40
2018-07-03T18:37:23.042Z,4.40
2018-07-03T18:38:23.183Z,5.30
2018-07-03T18:39:23.333Z,6.30
2018-07-03T18:40:23.482Z,4.50
2018-07-03T18:41:23.629Z,15.40
2018-07-03T18:42:23.780Z,9.10
2018-07-03T18:43:23.933Z,12.10
2018-07-03T18:44:24.076Z,5.80
2018-07-03T18:45:24.223Z,3.60
2018-07-03T18:46:24.381Z,4.60
2018-07-03T18:47:24.552Z,5.80
2018-07-03T18:48:24.656Z,5.20
2018-07-03T18:49:24.832Z,3.30
2018-07-03T18:50:24.960Z,3.00
2018-07-03T18:51:25.176Z,3.80
2018-07-03T18:53:57.650Z,4.00
2018-07-03T18:54:57.801Z,6.80
2018-07-03T18:55:57.976Z,11.10
2018-07-03T18:56:58.116Z,10.20
2018-07-03T18:57:58.262Z,21.60
2018-07-03T18:58:58.404Z,17.00
2018-07-03T18:59:58.570Z,14.70
2018-07-03T19:00:58.714Z,8.50
2018-07-03T19:01:58.872Z,11.10
2018-07-03T19:02:59.011Z,14.80
2018-07-03T19:03:59.156Z,14.50
2018-07-03T19:04:59.321Z,8.70
2018-07-03T19:05:59.460Z,8.20
2018-07-03T19:06:59.606Z,13.70
2018-07-03T19:07:59.838Z,16.30
2018-07-03T19:09:00.044Z,14.00
2018-07-03T19:10:00.060Z,12.10
2018-07-03T19:11:00.198Z,7.30
2018-07-03T19:12:00.385Z,6.70
2018-07-03T19:13:00.476Z,5.40
2018-07-03T19:14:00.636Z,5.30
2018-07-03T19:15:00.764Z,13.80
2018-07-03T19:16:00.906Z,15.70
2018-07-03T19:17:01.059Z,9.60
2018-07-03T19:18:01.216Z,10.50
2018-07-03T19:19:01.365Z,8.20
2018-07-03T19:20:01.506Z,22.40
2018-07-03T19:21:01.655Z,23.80
2018-07-03T19:22:01.807Z,16.20
2018-07-03T19:23:01.946Z,14.40
2018-07-03T19:24:02.081Z,14.70
2018-07-03T19:25:02.240Z,18.30
2018-07-03T19:26:02.440Z,13.80
2018-07-03T19:27:02.565Z,23.80
2018-07-03T19:28:02.755Z,11.90
2018-07-03T19:29:02.855Z,12.00
2018-07-03T19:30:02.997Z,16.30
2018-07-03T19:31:03.138Z,16.30
2018-07-03T19:32:03.282Z,17.50
2018-07-03T19:33:03.427Z,18.30
2018-07-03T19:34:03.572Z,14.00
2018-07-03T19:35:03.721Z,10.40
2018-07-03T19:36:03.920Z,17.50
2018-07-03T19:37:04.014Z,27.40
2018-07-03T19:38:04.236Z,15.40
2018-07-03T19:39:04.295Z,13.00
2018-07-03T19:40:04.438Z,7.30
2018-07-03T19:41:04.588Z,5.20
2018-07-03T19:42:04.779Z,8.10
2018-07-03T19:43:04.876Z,12.40
2018-07-03T19:44:05.027Z,9.80
2018-07-03T19:45:05.179Z,7.70
2018-07-03T19:46:05.321Z,10.10
2018-07-03T19:47:05.464Z,10.50
2018-07-03T19:48:05.618Z,7.90
2018-07-03T19:49:05.793Z,5.30
2018-07-03T19:50:05.906Z,11.60
2018-07-03T19:51:06.087Z,5.10
2018-07-03T19:52:06.209Z,2.50
2018-07-03T19:53:06.350Z,3.90
2018-07-03T19:54:06.493Z,2.50
2018-07-03T19:55:06.655Z,3.10
2018-07-03T19:56:06.795Z,2.60
2018-07-03T19:57:06.953Z,1.80
2018-07-03T19:58:07.129Z,2.00
2018-07-03T19:59:07.272Z,2.60
2018-07-03T20:00:07.414Z,2.00
2018-07-03T20:01:07.547Z,2.30
2018-07-03T20:02:07.717Z,6.90
2018-07-03T20:03:07.840Z,5.60
2018-07-03T20:04:07.986Z,4.10
2018-07-03T20:05:08.133Z,9.50
2018-07-03T20:06:08.276Z,7.90
2018-07-03T20:07:08.425Z,14.00
2018-07-03T20:08:08.602Z,9.40
2018-07-03T20:09:08.734Z,5.10
2018-07-03T20:10:08.882Z,5.60
2018-07-03T20:11:09.023Z,4.60
2018-07-03T20:12:09.175Z,8.30
2018-07-03T20:13:09.447Z,5.70
2018-07-03T20:14:09.460Z,4.00
2018-07-03T20:15:09.633Z,3.80
2018-07-03T20:16:09.769Z,5.20
2018-07-03T20:17:09.920Z,6.00
2018-07-03T20:18:10.052Z,4.30
2018-07-03T20:19:10.327Z,5.10
2018-07-03T20:20:10.364Z,4.40
2018-07-03T20:21:10.505Z,3.10
2018-07-03T20:22:10.652Z,5.50
2018-07-03T20:23:10.792Z,5.80
2018-07-03T20:24:10.948Z,8.10
2018-07-03T20:25:11.092Z,10.00
2018-07-03T20:26:11.233Z,5.00
2018-07-03T20:27:11.372Z,6.00
2018-07-03T20:28:11.532Z,25.30
2018-07-03T20:29:11.671Z,25.30
2018-07-03T20:30:11.831Z,55.10
2018-07-03T20:31:11.982Z,90.70
2018-07-03T20:32:12.122Z,47.60
2018-07-03T20:33:12.262Z,23.70
2018-07-03T20:34:12.423Z,8.80
2018-07-03T20:35:12.547Z,8.70
2018-07-03T20:36:12.685Z,3.30
2018-07-03T20:37:12.834Z,2.90
2018-07-03T20:38:12.980Z,2.60
2018-07-03T20:39:13.145Z,2.10
2018-07-03T20:40:13.284Z,2.00
2018-07-03T20:41:13.424Z,1.80
2018-07-03T20:42:13.595Z,1.90
2018-07-03T20:43:13.733Z,2.10
2018-07-03T20:44:13.878Z,2.00
2018-07-03T20:45:14.040Z,2.50
2018-07-03T20:46:14.182Z,2.80
2018-07-03T20:47:14.327Z,2.20
2018-07-03T20:48:14.469Z,1.80
2018-07-03T20:49:14.724Z,2.30
2018-07-03T20:50:14.777Z,2.10
2018-07-03T20:51:14.920Z,2.80
2018-07-03T20:52:15.063Z,3.50
2018-07-03T20:53:15.204Z,2.90
2018-07-03T20:54:15.400Z,1.90
2018-07-03T20:55:15.492Z,2.00
2018-07-03T20:56:15.633Z,1.60
2018-07-03T20:57:15.832Z,1.60
2018-07-03T20:58:15.935Z,1.50
2018-07-03T20:59:16.079Z,1.90
2018-07-03T21:00:16.215Z,1.60
2018-07-03T21:01:16.357Z,1.80
2018-07-03T21:02:16.501Z,1.80
2018-07-03T21:03:16.638Z,1.60
2018-07-03T21:04:16.947Z,1.90
2018-07-03T21:05:16.925Z,1.60
2018-07-03T21:06:17.122Z,1.50
2018-07-03T21:07:17.210Z,1.70
2018-07-03T21:08:17.352Z,2.10
2018-07-03T21:09:17.498Z,1.80
2018-07-03T21:10:17.635Z,1.80
2018-07-03T21:11:17.777Z,1.80
2018-07-03T21:12:17.916Z,2.00
2018-07-03T21:13:18.058Z,1.70
2018-07-03T21:14:18.203Z,1.90
2018-07-03T21:15:18.338Z,2.00
2018-07-03T21:16:18.488Z,2.00
2018-07-03T21:17:18.628Z,2.00
2018-07-03T21:18:18.768Z,1.70
2018-07-03T21:19:18.918Z,2.10
2018-07-03T21:20:19.050Z,1.70
2018-07-03T21:21:19.191Z,1.90
2018-07-03T21:22:19.335Z,78.60
2018-07-03T21:23:19.480Z,54.30
2018-07-03T21:24:19.657Z,78.30
2018-07-03T21:25:19.752Z,105.00
2018-07-03T21:26:19.899Z,77.80
2018-07-03T21:27:20.038Z,11.70
2018-07-03T21:28:20.179Z,5.20
2018-07-03T21:29:20.320Z,2.50
2018-07-03T21:30:20.464Z,2.30
2018-07-03T21:31:20.605Z,2.40
2018-07-03T21:32:20.752Z,2.00
2018-07-03T21:33:20.890Z,1.50
2018-07-03T21:34:21.104Z,1.60
2018-07-03T21:35:21.110Z,1.70
2018-07-03T21:36:21.347Z,2.00
2018-07-03T21:37:21.483Z,1.80
2018-07-03T21:38:21.531Z,1.90
2018-07-03T21:39:21.678Z,1.90
2018-07-03T21:40:21.814Z,2.20
2018-07-03T21:41:21.962Z,2.10
2018-07-03T21:42:22.124Z,1.90
2018-07-03T21:43:22.258Z,2.20
2018-07-03T21:44:22.437Z,2.20
2018-07-03T21:45:22.545Z,1.90
2018-07-03T21:46:22.733Z,2.00
2018-07-03T21:47:22.871Z,2.00
2018-07-03T21:48:23.009Z,1.80
2018-07-03T21:49:23.156Z,1.90
2018-07-03T21:50:23.323Z,1.80
2018-07-03T21:51:23.463Z,1.90
2018-07-03T21:52:23.611Z,1.90
2018-07-03T21:53:23.750Z,2.20
2018-07-03T21:54:23.926Z,50.20
2018-07-03T21:55:24.067Z,57.90
2018-07-03T21:56:24.214Z,79.00
2018-07-03T21:57:24.356Z,64.80
2018-07-03T21:58:24.524Z,31.50
2018-07-03T21:59:24.658Z,8.90
2018-07-03T22:00:24.859Z,4.10
2018-07-03T22:01:24.978Z,2.30
2018-07-03T22:02:25.135Z,2.00
2018-07-03T22:03:25.275Z,1.80
2018-07-03T22:04:25.422Z,2.10
2018-07-03T22:05:25.560Z,1.70
2018-07-03T22:06:25.710Z,2.00
2018-07-03T22:07:25.851Z,1.80
2018-07-03T22:08:26.022Z,2.10
2018-07-03T22:09:26.176Z,1.60
2018-07-03T22:10:26.315Z,1.80
2018-07-03T22:11:26.455Z,1.80
2018-07-03T22:12:26.601Z,1.80
2018-07-03T22:13:27.268Z,1.90
2018-07-03T22:14:26.914Z,1.90
2018-07-03T22:15:27.053Z,1.90
2018-07-03T22:16:27.205Z,1.90
2018-07-03T22:17:27.362Z,1.70
2018-07-03T22:18:27.508Z,1.80
2018-07-03T22:19:27.659Z,1.80
2018-07-03T22:20:27.794Z,1.80
2018-07-03T22:21:27.938Z,1.80
2018-07-03T22:22:28.068Z,2.00
2018-07-03T22:23:28.216Z,1.90
2018-07-03T22:24:28.355Z,2.40
2018-07-03T22:25:29.272Z,2.50
2018-07-03T22:26:28.646Z,2.50
2018-07-03T22:27:28.790Z,2.10
2018-07-03T22:28:28.926Z,2.30
2018-07-03T22:29:29.095Z,2.30
2018-07-03T22:30:29.165Z,2.40
2018-07-03T22:31:29.308Z,2.10
2018-07-03T22:32:29.442Z,2.30
2018-07-03T22:33:29.608Z,2.00
2018-07-03T22:34:29.728Z,2.00
2018-07-03T22:35:29.883Z,3.30
2018-07-03T22:36:30.025Z,92.70
2018-07-03T22:37:30.191Z,103.10
2018-07-03T22:38:30.332Z,158.80
2018-07-03T22:39:30.487Z,142.70
2018-07-03T22:40:30.602Z,58.80
2018-07-03T22:41:30.748Z,13.30
2018-07-03T22:42:30.892Z,4.90
2018-07-03T22:43:31.035Z,3.10
2018-07-03T22:44:31.180Z,2.60
2018-07-03T22:45:31.321Z,2.10
2018-07-03T22:46:31.463Z,2.10
2018-07-03T22:47:31.604Z,2.10
2018-07-03T22:48:31.749Z,1.90
2018-07-03T22:49:31.898Z,2.10
2018-07-03T22:50:32.031Z,2.10
2018-07-03T22:51:32.171Z,2.20
2018-07-03T22:52:32.311Z,2.00
2018-07-03T22:53:32.452Z,1.90
2018-07-03T22:54:32.587Z,2.10
2018-07-03T22:55:32.728Z,2.20
2018-07-03T22:56:32.866Z,2.20
2018-07-03T22:57:33.005Z,2.10
2018-07-03T22:58:33.173Z,2.20
2018-07-03T22:59:33.278Z,2.00
2018-07-03T23:00:33.407Z,1.90
2018-07-03T23:01:33.551Z,2.00
2018-07-03T23:02:33.686Z,2.00
2018-07-03T23:03:33.828Z,1.90
2018-07-03T23:04:33.966Z,1.90
2018-07-03T23:05:34.105Z,2.30
2018-07-03T23:06:34.250Z,8.00
2018-07-03T23:07:34.391Z,32.10
2018-07-03T23:08:34.545Z,56.20
2018-07-03T23:09:34.696Z,42.00
2018-07-03T23:10:34.830Z,49.30
2018-07-03T23:11:34.967Z,15.40
2018-07-03T23:12:35.115Z,6.20
2018-07-03T23:13:35.260Z,3.30
2018-07-03T23:14:35.401Z,2.30
2018-07-03T23:15:35.534Z,2.00
2018-07-03T23:16:35.676Z,2.20
2018-07-03T23:17:35.842Z,2.00
2018-07-03T23:18:35.962Z,1.70
2018-07-03T23:19:36.100Z,2.10
2018-07-03T23:20:36.244Z,2.00
2018-07-03T23:21:36.384Z,1.90
2018-07-03T23:22:36.520Z,2.20
2018-07-03T23:23:36.658Z,1.90
2018-07-03T23:24:36.821Z,2.00
2018-07-03T23:25:36.950Z,2.00
2018-07-03T23:26:37.083Z,1.90
2018-07-03T23:27:37.223Z,2.00
2018-07-03T23:28:37.363Z,1.90
2018-07-03T23:29:37.505Z,1.80
2018-07-03T23:30:37.655Z,2.10
2018-07-03T23:31:37.797Z,2.10
2018-07-03T23:32:37.936Z,1.80
2018-07-03T23:33:38.084Z,1.80
2018-07-03T23:34:38.215Z,1.60
2018-07-03T23:35:38.356Z,1.70
2018-07-03T23:36:38.500Z,2.00
2018-07-03T23:37:38.642Z,1.70
2018-07-03T23:38:38.784Z,1.90
2018-07-03T23:39:38.920Z,2.30
2018-07-03T23:40:39.064Z,1.90
2018-07-03T23:41:39.198Z,2.30
2018-07-03T23:42:39.340Z,2.10
2018-07-03T23:43:39.479Z,31.30
2018-07-03T23:44:39.618Z,100.10
2018-07-03T23:45:39.756Z,221.90
2018-07-03T23:46:39.893Z,115.40
2018-07-03T23:47:40.042Z,32.10
2018-07-03T23:48:40.196Z,8.20
2018-07-03T23:49:40.332Z,4.30
2018-07-03T23:50:40.469Z,2.40
2018-07-03T23:51:40.608Z,2.30
2018-07-03T23:52:40.761Z,2.20
2018-07-03T23:53:40.975Z,1.70
2018-07-03T23:54:41.060Z,1.80
2018-07-03T23:55:41.219Z,2.00
2018-07-03T23:56:41.374Z,2.10
2018-07-03T23:57:41.499Z,2.00
2018-07-03T23:58:41.638Z,2.20
2018-07-03T23:59:41.804Z,2.20
